createdAt,value
2022-09-17T00:01:24.064Z,11.30
2022-09-17T00:03:52.702Z,17.83
2022-09-17T00:06:19.772Z,18.02
2022-09-17T00:08:46.222Z,25.03
2022-09-17T00:11:19.353Z,34.42
2022-09-17T00:13:45.775Z,36.72
2022-09-17T00:16:16.335Z,26.42
2022-09-17T00:18:42.754Z,18.13
2022-09-17T00:21:16.730Z,9.67
2022-09-17T00:23:43.385Z,12.50
2022-09-17T00:26:09.794Z,9.70
2022-09-17T00:28:36.222Z,12.57
2022-09-17T00:31:08.082Z,10.10
2022-09-17T00:33:35.249Z,12.80
2022-09-17T00:36:03.570Z,10.82
2022-09-17T00:38:30.073Z,14.13
2022-09-17T00:40:56.496Z,10.90
2022-09-17T00:43:44.766Z,10.13
2022-09-17T00:46:42.886Z,8.80
2022-09-17T00:49:19.142Z,10.35
2022-09-17T00:52:00.468Z,9.77
2022-09-17T00:54:28.307Z,11.52
2022-09-17T00:56:54.877Z,9.50
2022-09-17T00:59:21.311Z,12.23
2022-09-17T01:01:48.231Z,11.35
2022-09-17T01:04:19.318Z,8.82
2022-09-17T01:07:09.037Z,11.93
2022-09-17T01:09:57.393Z,7.07
2022-09-17T01:12:50.335Z,12.57
2022-09-17T01:15:25.778Z,8.65
2022-09-17T01:18:01.629Z,9.48
2022-09-17T01:21:15.494Z,7.28
2022-09-17T01:24:17.213Z,8.68
2022-09-17T01:26:46.708Z,8.47
2022-09-17T01:29:31.576Z,8.50
2022-09-17T01:32:20.276Z,10.77
2022-09-17T01:34:59.270Z,11.30
2022-09-17T01:37:34.389Z,9.77
2022-09-17T01:40:06.676Z,7.83
2022-09-17T01:42:57.440Z,10.68
2022-09-17T01:45:56.463Z,11.07
2022-09-17T01:48:27.349Z,8.32
2022-09-17T01:50:59.275Z,9.63
2022-09-17T01:53:34.969Z,9.13
2022-09-17T01:56:03.590Z,9.50
2022-09-17T01:58:36.616Z,9.75
2022-09-17T02:01:06.041Z,7.18
2022-09-17T02:03:39.220Z,9.20
2022-09-17T02:06:11.929Z,9.30
2022-09-17T02:08:53.032Z,9.52
2022-09-17T02:11:20.336Z,9.68
2022-09-17T02:14:00.357Z,9.65
2022-09-17T02:16:29.929Z,9.07
2022-09-17T02:19:00.905Z,11.47
2022-09-17T02:21:38.542Z,7.30
2022-09-17T02:24:14.742Z,11.70
2022-09-17T02:26:47.884Z,12.27
2022-09-17T02:29:24.902Z,27.10
2022-09-17T02:31:51.432Z,54.33
2022-09-17T02:34:19.669Z,31.08
2022-09-17T02:36:46.097Z,41.70
2022-09-17T02:39:12.494Z,60.40
2022-09-17T02:42:05.263Z,43.55
2022-09-17T02:44:49.281Z,39.30
2022-09-17T02:47:18.332Z,31.98
2022-09-17T02:50:12.557Z,28.10
2022-09-17T02:52:57.794Z,16.75
2022-09-17T02:55:33.138Z,17.42
2022-09-17T02:58:16.789Z,18.47
2022-09-17T03:00:44.840Z,14.27
2022-09-17T03:03:23.627Z,15.35
2022-09-17T03:05:50.545Z,11.50
2022-09-17T03:08:18.014Z,15.05
2022-09-17T03:10:44.442Z,11.87
2022-09-17T03:13:10.821Z,14.15
2022-09-17T03:15:37.212Z,13.25
2022-09-17T03:18:03.762Z,13.50
2022-09-17T03:20:30.174Z,13.48
2022-09-17T03:22:56.527Z,14.10
2022-09-17T03:25:22.890Z,12.02
2022-09-17T03:27:49.344Z,12.60
2022-09-17T03:30:15.863Z,13.23
2022-09-17T03:32:42.271Z,11.43
2022-09-17T03:35:08.787Z,10.27
2022-09-17T03:37:35.199Z,13.45
2022-09-17T03:40:02.141Z,13.73
2022-09-17T03:42:28.577Z,13.25
2022-09-17T03:44:54.978Z,11.20
2022-09-17T03:47:21.376Z,12.60
2022-09-17T03:49:47.909Z,14.20
2022-09-17T03:52:14.288Z,11.32
2022-09-17T03:54:40.664Z,12.80
2022-09-17T03:57:07.026Z,9.93
2022-09-17T03:59:33.442Z,12.07
2022-09-17T04:01:59.896Z,13.73
2022-09-17T04:04:26.342Z,9.68
2022-09-17T04:06:52.741Z,10.73
2022-09-17T04:09:19.134Z,11.10
2022-09-17T04:11:45.569Z,9.20
2022-09-17T04:14:12.023Z,10.88
2022-09-17T04:16:38.398Z,10.73
2022-09-17T04:19:04.832Z,7.63
2022-09-17T04:21:31.250Z,13.43
2022-09-17T04:23:57.622Z,13.03
2022-09-17T04:26:24.027Z,12.00
2022-09-17T04:28:50.375Z,11.50
2022-09-17T04:31:16.836Z,14.57
2022-09-17T04:33:43.314Z,16.17
2022-09-17T04:36:09.676Z,18.97
2022-09-17T04:38:36.086Z,10.52
2022-09-17T04:41:02.482Z,13.68
2022-09-17T04:43:28.866Z,16.10
2022-09-17T04:45:55.256Z,8.30
2022-09-17T04:48:21.685Z,9.60
2022-09-17T04:50:48.224Z,12.43
2022-09-17T04:53:14.621Z,10.23
2022-09-17T04:55:42.532Z,8.30
2022-09-17T04:58:08.923Z,11.70
2022-09-17T05:00:35.380Z,9.87
2022-09-17T05:03:01.898Z,9.75
2022-09-17T05:05:28.344Z,9.52
2022-09-17T05:07:54.825Z,7.80
2022-09-17T05:10:23.335Z,7.32
2022-09-17T05:12:54.519Z,10.30
2022-09-17T05:15:21.702Z,11.27
2022-09-17T05:17:48.376Z,9.48
2022-09-17T05:20:15.457Z,6.47
2022-09-17T05:22:46.505Z,8.48
2022-09-17T05:25:14.628Z,7.90
2022-09-17T05:27:41.172Z,8.68
2022-09-17T05:30:08.944Z,7.20
2022-09-17T05:32:36.103Z,7.43
2022-09-17T05:35:05.726Z,10.38
2022-09-17T05:37:32.492Z,8.30
2022-09-17T05:39:58.922Z,9.07
2022-09-17T05:42:25.441Z,9.95
2022-09-17T05:44:51.910Z,8.70
2022-09-17T05:47:18.308Z,8.88
2022-09-17T05:49:44.691Z,10.63
2022-09-17T05:52:11.171Z,8.65
2022-09-17T05:54:37.614Z,8.95
2022-09-17T05:57:04.255Z,6.75
2022-09-17T05:59:30.661Z,6.60
2022-09-17T06:01:57.309Z,9.17
2022-09-17T06:04:23.762Z,7.82
2022-09-17T06:06:50.266Z,7.47
2022-09-17T06:09:16.714Z,9.35
2022-09-17T06:11:43.207Z,5.50
2022-09-17T06:14:09.712Z,9.90
2022-09-17T06:16:36.176Z,6.20
2022-09-17T06:19:02.611Z,7.47
2022-09-17T06:21:29.032Z,6.57
2022-09-17T06:23:55.400Z,8.95
2022-09-17T06:26:21.773Z,10.43
2022-09-17T06:28:48.182Z,11.88
2022-09-17T06:31:14.597Z,8.80
2022-09-17T06:33:41.334Z,10.25
2022-09-17T06:36:14.130Z,9.27
2022-09-17T06:38:42.074Z,7.13
2022-09-17T06:41:08.715Z,7.10
2022-09-17T06:43:35.165Z,7.50
2022-09-17T06:46:04.788Z,7.88
2022-09-17T06:48:34.318Z,9.13
2022-09-17T06:51:06.486Z,6.50
2022-09-17T06:53:33.240Z,5.88
2022-09-17T06:56:05.913Z,6.75
2022-09-17T06:58:34.122Z,5.45
2022-09-17T07:01:01.865Z,6.95
2022-09-17T07:03:29.429Z,5.50
2022-09-17T07:05:56.819Z,11.98
2022-09-17T07:08:23.796Z,6.25
2022-09-17T07:10:50.270Z,7.90
2022-09-17T07:13:16.655Z,6.07
2022-09-17T07:15:43.151Z,5.80
2022-09-17T07:18:10.997Z,7.28
2022-09-17T07:20:38.400Z,6.88
2022-09-17T07:23:04.814Z,6.80
2022-09-17T07:25:31.225Z,6.05
2022-09-17T07:27:57.635Z,6.17
2022-09-17T07:30:24.032Z,6.82
2022-09-17T07:32:50.504Z,8.45
2022-09-17T07:35:16.944Z,7.25
2022-09-17T07:37:43.393Z,6.85
2022-09-17T07:40:10.073Z,7.93
2022-09-17T07:42:36.911Z,6.60
2022-09-17T07:45:03.501Z,7.70
2022-09-17T07:47:29.888Z,6.85
2022-09-17T07:49:56.411Z,5.93
2022-09-17T07:52:22.798Z,10.40
2022-09-17T07:54:49.254Z,7.57
2022-09-17T07:57:15.679Z,10.32
2022-09-17T07:59:42.035Z,8.18
2022-09-17T08:02:13.057Z,9.00
2022-09-17T08:04:42.290Z,7.60
2022-09-17T08:07:11.725Z,7.97
2022-09-17T08:09:38.209Z,9.07
2022-09-17T08:12:05.012Z,9.65
2022-09-17T08:14:31.439Z,14.68
2022-09-17T08:16:57.845Z,9.60
2022-09-17T08:19:24.306Z,7.97
2022-09-17T08:21:50.746Z,8.48
2022-09-17T08:24:17.096Z,8.18
2022-09-17T08:26:43.501Z,6.60
2022-09-17T08:29:09.934Z,8.10
2022-09-17T08:31:36.449Z,7.03
2022-09-17T08:34:07.722Z,7.40
2022-09-17T08:36:34.110Z,8.45
2022-09-17T08:39:00.589Z,8.07
2022-09-17T08:42:13.866Z,5.97
2022-09-17T08:44:43.305Z,7.30
2022-09-17T08:47:42.946Z,8.52
2022-09-17T08:50:17.116Z,8.55
2022-09-17T08:52:46.591Z,9.80
2022-09-17T08:55:28.377Z,8.10
2022-09-17T08:58:04.127Z,7.35
2022-09-17T09:00:40.672Z,6.22
2022-09-17T09:03:34.050Z,9.50
2022-09-17T09:06:01.989Z,6.80
2022-09-17T09:08:43.748Z,7.93
2022-09-17T09:11:31.043Z,7.30
2022-09-17T09:14:09.685Z,5.32
2022-09-17T09:16:41.028Z,5.22
2022-09-17T09:19:19.676Z,5.72
2022-09-17T09:22:01.382Z,6.77
2022-09-17T09:24:39.674Z,5.97
2022-09-17T09:27:22.632Z,6.03
2022-09-17T09:30:07.894Z,5.97
2022-09-17T09:33:13.004Z,4.60
2022-09-17T09:35:42.446Z,6.60
2022-09-17T09:38:29.983Z,7.82
2022-09-17T09:41:32.924Z,4.93
2022-09-17T09:44:10.808Z,5.95
2022-09-17T09:47:09.310Z,7.70
2022-09-17T09:50:06.793Z,6.03
2022-09-17T09:52:36.104Z,6.80
2022-09-17T09:55:05.330Z,6.78
2022-09-17T09:57:50.077Z,6.57
2022-09-17T10:00:29.812Z,7.40
2022-09-17T10:03:17.594Z,6.80
2022-09-17T10:06:08.446Z,6.57
2022-09-17T10:08:37.178Z,5.63
2022-09-17T10:11:16.507Z,6.00
2022-09-17T10:13:42.929Z,5.80
2022-09-17T10:16:18.432Z,4.90
2022-09-17T10:18:46.778Z,7.82
2022-09-17T10:21:30.033Z,8.18
2022-09-17T10:23:57.299Z,6.25
2022-09-17T10:26:27.321Z,8.73
2022-09-17T10:28:57.081Z,9.93
2022-09-17T10:31:23.599Z,6.75
2022-09-17T10:33:58.692Z,6.60
2022-09-17T10:36:38.074Z,5.93
2022-09-17T10:39:27.099Z,5.97
2022-09-17T10:41:58.900Z,6.80
2022-09-17T10:44:36.307Z,6.70
2022-09-17T10:47:18.767Z,6.88
2022-09-17T10:49:54.022Z,6.93
2022-09-17T10:52:24.937Z,9.05
2022-09-17T10:55:25.465Z,9.83
2022-09-17T10:58:07.138Z,6.65
2022-09-17T11:00:42.827Z,5.78
2022-09-17T11:03:43.255Z,7.63
2022-09-17T11:06:15.339Z,6.32
2022-09-17T11:09:15.874Z,6.40
2022-09-17T11:12:09.923Z,8.23
2022-09-17T11:14:45.104Z,8.23
2022-09-17T11:17:26.460Z,6.65
2022-09-17T11:20:01.716Z,6.60
2022-09-17T11:22:33.977Z,6.63
2022-09-17T11:25:15.419Z,7.82
2022-09-17T11:27:53.264Z,8.52
2022-09-17T11:30:21.792Z,6.03
2022-09-17T11:33:08.383Z,5.93
2022-09-17T11:35:48.631Z,8.43
2022-09-17T11:38:23.243Z,6.45
2022-09-17T11:40:59.097Z,7.18
2022-09-17T11:43:31.870Z,8.85
2022-09-17T11:46:01.458Z,7.78
2022-09-17T11:48:38.105Z,12.03
2022-09-17T11:51:24.457Z,10.93
2022-09-17T11:54:14.568Z,9.60
2022-09-17T11:56:43.975Z,9.63
2022-09-17T11:59:16.550Z,8.98
2022-09-17T12:02:04.473Z,9.13
2022-09-17T12:04:36.761Z,9.35
2022-09-17T12:07:40.721Z,9.07
2022-09-17T12:10:28.722Z,7.43
2022-09-17T12:13:18.489Z,10.77
2022-09-17T12:15:53.579Z,8.43
2022-09-17T12:18:45.666Z,8.57
2022-09-17T12:21:19.471Z,7.88
2022-09-17T12:23:54.056Z,6.60
2022-09-17T12:26:26.238Z,5.50
2022-09-17T12:29:19.006Z,5.90
2022-09-17T12:31:58.285Z,4.70
2022-09-17T12:34:30.776Z,3.63
2022-09-17T12:37:19.920Z,5.50
2022-09-17T12:40:09.672Z,5.22
2022-09-17T12:42:45.871Z,7.73
2022-09-17T12:45:50.571Z,7.20
2022-09-17T12:48:38.517Z,7.75
2022-09-17T12:51:09.928Z,9.65
2022-09-17T12:54:01.731Z,9.95
2022-09-17T12:56:40.285Z,8.23
2022-09-17T12:59:16.792Z,7.72
2022-09-17T13:01:55.281Z,8.70
2022-09-17T13:04:59.981Z,10.30
2022-09-17T13:08:03.900Z,6.65
2022-09-17T13:11:04.276Z,6.13
2022-09-17T13:14:06.195Z,6.15
2022-09-17T13:17:02.951Z,8.00
2022-09-17T13:19:38.353Z,7.10
2022-09-17T13:22:17.328Z,10.70
2022-09-17T13:24:47.295Z,9.00
2022-09-17T13:27:23.367Z,12.40
2022-09-17T13:29:58.066Z,9.85
2022-09-17T13:32:34.036Z,16.25
2022-09-17T13:35:06.658Z,9.32
2022-09-17T13:37:34.879Z,11.90
2022-09-17T13:40:02.790Z,8.80
2022-09-17T13:42:32.015Z,11.63
2022-09-17T13:45:08.765Z,10.60
2022-09-17T13:47:48.713Z,12.15
2022-09-17T13:50:36.887Z,9.87
2022-09-17T13:53:12.467Z,10.05
2022-09-17T13:55:40.453Z,7.03
2022-09-17T13:58:10.701Z,10.00
2022-09-17T14:01:07.350Z,10.70
2022-09-17T14:03:33.741Z,9.57
2022-09-17T14:06:06.032Z,7.68
2022-09-17T14:08:44.785Z,8.52
2022-09-17T14:11:23.272Z,8.18
2022-09-17T14:14:04.614Z,8.07
2022-09-17T14:16:31.061Z,7.13
2022-09-17T14:19:15.753Z,7.45
2022-09-17T14:21:55.764Z,8.13
2022-09-17T14:24:24.767Z,7.53
2022-09-17T14:27:18.203Z,7.80
2022-09-17T14:30:03.431Z,9.60
2022-09-17T14:32:48.397Z,8.68
2022-09-17T14:35:19.996Z,9.20
2022-09-17T14:37:52.754Z,6.40
2022-09-17T14:40:20.839Z,8.45
2022-09-17T14:42:53.361Z,7.63
2022-09-17T14:45:41.184Z,9.30
2022-09-17T14:48:27.274Z,6.25
2022-09-17T14:51:31.434Z,7.22
2022-09-17T14:54:03.951Z,7.70
2022-09-17T14:56:32.437Z,9.30
2022-09-17T14:58:59.344Z,10.57
2022-09-17T15:01:28.281Z,9.57
2022-09-17T15:04:20.530Z,11.55
2022-09-17T15:06:46.988Z,11.18
2022-09-17T15:09:24.523Z,10.53
2022-09-17T15:11:54.786Z,11.07
2022-09-17T15:14:27.574Z,8.00
2022-09-17T15:16:57.395Z,10.68
2022-09-17T15:19:28.002Z,7.32
2022-09-17T15:21:57.839Z,9.37
2022-09-17T15:24:45.870Z,9.05
2022-09-17T15:27:12.222Z,7.40
2022-09-17T15:29:42.303Z,8.63
2022-09-17T15:32:12.281Z,9.73
2022-09-17T15:34:38.664Z,10.40
2022-09-17T15:37:17.712Z,8.40
2022-09-17T15:39:49.267Z,10.63
2022-09-17T15:42:22.174Z,10.15
2022-09-17T15:44:49.114Z,10.95
2022-09-17T15:47:49.989Z,9.07
2022-09-17T15:50:23.382Z,7.53
2022-09-17T15:52:51.301Z,8.93
2022-09-17T15:55:33.707Z,9.27
2022-09-17T15:58:02.461Z,11.07
2022-09-17T16:00:28.906Z,10.47
2022-09-17T16:02:55.498Z,14.13
2022-09-17T16:05:24.734Z,11.20
2022-09-17T16:07:51.353Z,9.95
2022-09-17T16:10:18.044Z,13.07
2022-09-17T16:12:44.579Z,12.13
2022-09-17T16:15:12.825Z,12.70
2022-09-17T16:17:44.353Z,11.65
2022-09-17T16:20:21.418Z,13.35
2022-09-17T16:22:48.401Z,9.02
2022-09-17T16:25:15.950Z,11.07
2022-09-17T16:27:46.987Z,9.57
2022-09-17T16:30:16.287Z,11.50
2022-09-17T16:32:42.719Z,9.57
2022-09-17T16:35:16.958Z,10.95
2022-09-17T16:37:43.788Z,12.27
2022-09-17T16:40:12.043Z,9.90
2022-09-17T16:42:38.822Z,23.98
2022-09-17T16:45:06.787Z,13.60
2022-09-17T16:47:37.524Z,8.18
2022-09-17T16:50:06.226Z,9.17
2022-09-17T16:52:33.018Z,8.60
2022-09-17T16:54:59.405Z,9.20
2022-09-17T16:57:25.836Z,8.40
2022-09-17T16:59:52.375Z,8.57
2022-09-17T17:02:18.820Z,10.53
2022-09-17T17:04:45.197Z,10.40
2022-09-17T17:07:11.618Z,8.88
2022-09-17T17:09:38.059Z,11.02
2022-09-17T17:12:04.592Z,7.05
2022-09-17T17:14:31.142Z,8.07
2022-09-17T17:16:57.613Z,8.45
2022-09-17T17:19:24.155Z,7.05
2022-09-17T17:21:51.377Z,9.68
2022-09-17T17:24:18.193Z,7.13
2022-09-17T17:26:45.045Z,7.47
2022-09-17T17:29:11.434Z,9.15
2022-09-17T17:31:37.890Z,7.63
2022-09-17T17:34:04.363Z,8.13
2022-09-17T17:36:30.805Z,8.00
2022-09-17T17:38:58.367Z,6.83
2022-09-17T17:41:25.249Z,7.75
2022-09-17T17:43:56.133Z,8.57
2022-09-17T17:46:22.594Z,8.45
2022-09-17T17:48:49.895Z,10.63
2022-09-17T17:51:17.208Z,9.23
2022-09-17T17:53:43.669Z,10.18
2022-09-17T17:56:11.055Z,11.20
2022-09-17T17:58:37.864Z,9.27
2022-09-17T18:01:19.616Z,10.27
2022-09-17T18:03:46.129Z,10.43
2022-09-17T18:06:13.043Z,7.10
2022-09-17T18:08:41.118Z,9.10
2022-09-17T18:11:08.546Z,8.70
2022-09-17T18:13:37.020Z,9.52
2022-09-17T18:16:05.073Z,9.43
2022-09-17T18:18:42.185Z,10.23
2022-09-17T18:21:16.276Z,8.23
2022-09-17T18:23:43.355Z,9.45
2022-09-17T18:26:15.954Z,10.45
2022-09-17T18:28:42.768Z,9.13
2022-09-17T18:31:22.295Z,10.93
2022-09-17T18:33:50.642Z,8.85
2022-09-17T18:36:17.041Z,11.25
2022-09-17T18:38:43.558Z,10.35
2022-09-17T18:41:12.429Z,9.80
2022-09-17T18:43:40.429Z,13.20
2022-09-17T18:46:06.921Z,11.07
2022-09-17T18:48:36.565Z,11.48
2022-09-17T18:51:07.117Z,10.48
2022-09-17T18:53:35.617Z,7.87
2022-09-17T18:56:10.000Z,7.35
2022-09-17T18:58:36.421Z,9.20
2022-09-17T19:01:06.940Z,6.82
2022-09-17T19:03:34.261Z,9.88
2022-09-17T19:06:01.656Z,33.07
2022-09-17T19:08:28.100Z,26.13
2022-09-17T19:10:54.542Z,21.15
2022-09-17T19:13:21.014Z,16.23
2022-09-17T19:15:47.648Z,17.60
2022-09-17T19:18:14.242Z,12.23
2022-09-17T19:20:40.675Z,26.13
2022-09-17T19:23:07.769Z,21.83
2022-09-17T19:25:37.855Z,27.17
2022-09-17T19:28:05.002Z,23.13
2022-09-17T19:30:31.654Z,26.27
2022-09-17T19:32:58.467Z,21.95
2022-09-17T19:35:26.115Z,15.85
2022-09-17T19:37:52.989Z,12.30
2022-09-17T19:40:20.247Z,12.05
2022-09-17T19:42:55.527Z,10.73
2022-09-17T19:45:22.419Z,9.50
2022-09-17T19:47:49.002Z,14.27
2022-09-17T19:50:15.514Z,17.95
2022-09-17T19:52:42.056Z,11.88
2022-09-17T19:55:12.688Z,12.70
2022-09-17T19:57:39.991Z,13.27
2022-09-17T20:00:08.037Z,11.90
2022-09-17T20:02:34.561Z,8.65
2022-09-17T20:05:01.039Z,11.05
2022-09-17T20:07:28.556Z,16.90
2022-09-17T20:09:54.981Z,21.27
2022-09-17T20:12:21.674Z,27.85
2022-09-17T20:14:48.098Z,78.43
2022-09-17T20:17:14.515Z,51.88
2022-09-17T20:19:40.966Z,29.73
2022-09-17T20:22:07.374Z,46.58
2022-09-17T20:24:33.764Z,30.88
2022-09-17T20:27:00.178Z,41.28
2022-09-17T20:29:26.566Z,69.72
2022-09-17T20:31:52.945Z,49.47
2022-09-17T20:34:19.311Z,27.90
2022-09-17T20:36:45.698Z,20.52
2022-09-17T20:39:16.742Z,11.98
2022-09-17T20:41:44.595Z,9.15
2022-09-17T20:44:11.053Z,7.50
2022-09-17T20:46:37.662Z,9.52
2022-09-17T20:49:04.229Z,8.85
2022-09-17T20:51:31.066Z,7.57
2022-09-17T20:53:57.832Z,8.48
2022-09-17T20:56:27.738Z,10.53
2022-09-17T20:59:03.780Z,7.88
2022-09-17T21:01:31.409Z,13.18
2022-09-17T21:03:59.938Z,16.50
2022-09-17T21:06:34.617Z,17.58
2022-09-17T21:09:01.764Z,21.60
2022-09-17T21:11:29.898Z,22.05
2022-09-17T21:13:56.971Z,20.88
2022-09-17T21:16:23.683Z,24.55
2022-09-17T21:18:55.678Z,21.17
2022-09-17T21:21:22.081Z,22.03
2022-09-17T21:23:48.582Z,25.02
2022-09-17T21:26:16.044Z,23.88
2022-09-17T21:28:44.099Z,34.45
2022-09-17T21:31:16.496Z,26.70
2022-09-17T21:33:44.421Z,17.37
2022-09-17T21:36:13.698Z,16.17
2022-09-17T21:38:40.699Z,17.33
2022-09-17T21:41:10.857Z,14.95
2022-09-17T21:43:37.862Z,14.18
2022-09-17T21:46:06.984Z,11.43
2022-09-17T21:48:36.005Z,13.40
2022-09-17T21:51:08.233Z,14.82
2022-09-17T21:53:35.104Z,16.75
2022-09-17T21:56:07.357Z,10.05
2022-09-17T21:58:34.687Z,13.43
2022-09-17T22:01:15.647Z,21.75
2022-09-17T22:03:43.209Z,18.52
2022-09-17T22:06:17.445Z,15.77
2022-09-17T22:08:44.917Z,15.15
2022-09-17T22:11:14.163Z,31.13
2022-09-17T22:13:41.093Z,37.95
2022-09-17T22:16:09.425Z,30.13
2022-09-17T22:18:37.814Z,12.75
2022-09-17T22:21:16.048Z,11.57
2022-09-17T22:23:42.792Z,10.87
2022-09-17T22:26:09.282Z,8.40
2022-09-17T22:28:35.907Z,9.18
2022-09-17T22:31:05.526Z,12.95
2022-09-17T22:33:34.473Z,11.20
2022-09-17T22:36:06.538Z,10.77
2022-09-17T22:38:33.252Z,8.70
2022-09-17T22:41:22.501Z,11.48
2022-09-17T22:43:56.030Z,11.63
2022-09-17T22:46:25.536Z,12.13
2022-09-17T22:48:52.512Z,9.80
2022-09-17T22:51:19.426Z,9.43
2022-09-17T22:53:45.851Z,7.75
2022-09-17T22:56:15.227Z,7.53
2022-09-17T22:58:42.637Z,7.75
2022-09-17T23:01:14.569Z,8.17
2022-09-17T23:03:41.788Z,10.80
2022-09-17T23:06:11.928Z,9.70
2022-09-17T23:08:38.597Z,10.20
2022-09-17T23:11:07.305Z,9.32
2022-09-17T23:13:34.268Z,9.23
2022-09-17T23:16:05.676Z,9.88
2022-09-17T23:18:32.655Z,10.75
2022-09-17T23:21:00.614Z,9.65
2022-09-17T23:23:27.922Z,8.43
2022-09-17T23:25:55.326Z,9.97
2022-09-17T23:28:22.336Z,11.65
2022-09-17T23:30:49.010Z,9.05
2022-09-17T23:33:15.482Z,20.67
2022-09-17T23:35:41.892Z,39.10
2022-09-17T23:38:08.284Z,37.23
2022-09-17T23:40:34.748Z,28.33
2022-09-17T23:43:01.209Z,16.42
2022-09-17T23:45:27.627Z,18.67
2022-09-17T23:47:54.026Z,11.13
2022-09-17T23:50:20.422Z,14.20
2022-09-17T23:52:46.827Z,14.38
2022-09-17T23:55:13.282Z,14.57
2022-09-17T23:57:39.684Z,12.45
